Skip Navigation LinksHome page > Weather > Current weather Skip Navigation Links

Current Weather

Ben-Gurion Intl Apt, Tel Aviv, Israel

For information only: do not use for flight planning or navigation.
Latest weather
Observation time Saturday, April 19, 2014 10:20 PM IDT
Local time Saturday, April 19, 2014 10:33 PM IDT
Flight conditions Visual Meteorological Conditions
Winds
Wind direction South (170°)
Wind speed 8 mph
Visibility 6.2 mi.
Sky condition
Ceiling unlimited
Sky clear
Temperature 79°F
Dewpoint 54°F
Altimeter 29.94 in.Hg
Derived measurements
Relative humidity 42%
Heat index 79°F
Density altitude 1444 ft.
Remarks
Ceiling and visibility OK.
METAR LLBG 191920Z 17007KT CAVOK 26/12 Q1014 TEMPO 24012KT RMK BKN120

Settings

Location code

InnerDrive.Weather 4.0.4869.0 Release CLR 4.0.30319.18449
Copyright ©2013 Inner Drive Technology. All rights reserved. Portions Copyright ©1986-2013 David Braverman.

Find weather

Site navigation


Skip Navigation Links

Place info

Page info

PayPal - The safer, easier way to pay online!

Return home.

Copyright ©2014 Inner Drive Technology. Purveyors of fine, hand-crafted computer software. Page printed 2014-04-19T19:33:44 UTC.